Meteo Giornale » Osservazioni meteo Oman » Khassab
ore: 22:50 - Osservazioni Meteo Khassab
Lat. 26° 13' N Lon. 56° 14' E Alt. 3 metri s.l.m.
36 °C
Sereno
Temp. 24 Ore
33 °C
41 °C
Nord
5.5 Km/h
Dew point 25 °C
Umidità 53 %
Visibilità 10 Km
Il sole sorge alle ore 05:55
Il sole tramonta alle ore 18:34
| Data e Ora | Cielo e Fenomeni | T °C | DP °C | Um. % | Pres. hPa | Vis. km | Vento km/h | |
|---|---|---|---|---|---|---|---|---|
| Ieri h: 22:50 | Sereno | 36 | 25 | 53 | 1001 | 10 | N 5.5 | |
| Ieri h: 21:50 | Sereno | 36 | 25 | 53 | 1001 | 10 | N 7.4 | |
| Ieri h: 20:50 | Sereno | 36 | 26 | 56 | 1000 | 10 | N 13 | |
| Ieri h: 19:50 | Sereno | 37 | 26 | 53 | 999 | 10 | N/NE 7.4 | |
| Ieri h: 18:50 | Sereno | 36 | 27 | 60 | 999 | 10 | N/NE 24 | |
| Ieri h: 17:50 | Sereno | 38 | 26 | 50 | 999 | 10 | N/NE 14.8 | |
| Ieri h: 16:50 | Sereno | 39 | 24 | 42 | 999 | 10 | N 22.2 | |
| Ieri h: 15:50 | Sereno | 41 | 23 | 36 | 998 | 10 | N/NE 22.2 | |
| Ieri h: 14:50 | Sereno | 39 | 25 | 45 | 999 | 10 | N 22.2 | |
| Ieri h: 13:50 | Sereno | 39 | 25 | 45 | 999 | 10 | N 25.9 | |
| Ieri h: 12:50 | Sereno | 40 | 22 | 35 | 1000 | 10 | N/NE 25.9 | |
| Ieri h: 11:50 | Sereno | 40 | 24 | 40 | 1000 | 10 | N/NE 22.2 | |
| Ieri h: 10:50 | Sereno | 40 | 23 | 38 | 1001 | 10 | N/NE 16.7 | |
| Ieri h: 09:50 | Sereno | 39 | 23 | 40 | 1001 | 10 | N 5.5 | |
| Ieri h: 08:50 | Sereno | 37 | 24 | 47 | 1001 | 10 | O/SO 7.4 | |
| Ieri h: 07:50 | Sereno | 35 | 25 | 56 | 1001 | 10 | S 7.4 | |
| Ieri h: 06:50 | Sereno | 34 | 25 | 59 | 1001 | 10 | N 5.5 | |
| Ieri h: 05:50 | Sereno | 33 | 26 | 66 | 1000 | 8 | NE 9.3 | |
| Ieri h: 04:50 | Sereno | 33 | 27 | 70 | 999 | 8 | N 1.8 | |
| Ieri h: 03:50 | Sereno | 33 | 28 | 75 | 999 | 8 | N/NE 9.3 | |
| Ieri h: 02:50 | Sereno | 33 | 29 | 79 | 999 | 8 | N 3.7 | |
| Ieri h: 01:50 | Sereno | 33 | 29 | 79 | 1000 | 8 | N/NE 7.4 | |
| Ieri h: 00:50 | Sereno | 34 | 28 | 71 | 1000 | 8 | N 5.5 | |



